createdAt,value
2018-06-10T00:00:22.569Z,13.43
2018-06-10T00:02:51.077Z,13.67
2018-06-10T00:05:19.279Z,15.07
2018-06-10T00:07:47.519Z,12.90
2018-06-10T00:10:15.862Z,14.10
2018-06-10T00:12:44.177Z,14.10
2018-06-10T00:15:12.455Z,12.43
2018-06-10T00:17:40.710Z,13.93
2018-06-10T00:20:09.054Z,14.23
2018-06-10T00:22:37.365Z,14.63
2018-06-10T00:25:06.427Z,15.23
2018-06-10T00:27:34.666Z,13.60
2018-06-10T00:30:02.975Z,13.90
2018-06-10T00:32:31.866Z,14.73
2018-06-10T00:35:00.256Z,15.47
2018-06-10T00:37:28.482Z,15.17
2018-06-10T00:39:56.786Z,16.60
2018-06-10T00:42:25.007Z,15.90
2018-06-10T00:44:53.516Z,15.97
2018-06-10T00:47:22.082Z,16.87
2018-06-10T00:49:50.416Z,15.87
2018-06-10T00:52:18.695Z,14.53
2018-06-10T00:54:47.036Z,14.50
2018-06-10T00:57:15.298Z,12.13
2018-06-10T00:59:43.552Z,15.07
2018-06-10T01:02:11.837Z,14.53
2018-06-10T01:04:40.085Z,13.97
2018-06-10T01:07:08.351Z,15.80
2018-06-10T01:09:36.566Z,14.27
2018-06-10T01:12:04.901Z,17.43
2018-06-10T01:14:33.499Z,13.10
2018-06-10T01:17:01.714Z,13.33
2018-06-10T01:19:29.974Z,11.77
2018-06-10T01:21:58.309Z,12.57
2018-06-10T01:24:26.731Z,11.93
2018-06-10T01:26:54.972Z,11.63
2018-06-10T01:29:23.241Z,9.47
2018-06-10T01:31:51.488Z,9.10
2018-06-10T01:34:19.733Z,8.80
2018-06-10T01:36:47.960Z,9.60
2018-06-10T01:39:16.193Z,9.37
2018-06-10T01:41:44.430Z,7.97
2018-06-10T01:44:12.630Z,8.97
2018-06-10T01:46:40.878Z,8.33
2018-06-10T01:49:09.168Z,8.70
2018-06-10T01:51:37.414Z,9.60
2018-06-10T01:54:05.617Z,10.40
2018-06-10T01:56:33.901Z,9.73
2018-06-10T01:59:02.112Z,8.10
2018-06-10T02:01:30.338Z,8.67
2018-06-10T02:03:58.625Z,7.77
2018-06-10T02:06:26.898Z,8.23
2018-06-10T02:08:55.150Z,8.77
2018-06-10T02:11:23.392Z,9.90
2018-06-10T02:13:51.626Z,8.07
2018-06-10T02:16:19.970Z,8.70
2018-06-10T02:18:48.198Z,9.93
2018-06-10T02:21:16.438Z,9.03
2018-06-10T02:23:44.683Z,9.00
2018-06-10T02:26:12.925Z,9.23
2018-06-10T02:28:41.127Z,9.63
2018-06-10T02:31:09.394Z,10.83
2018-06-10T02:33:37.636Z,10.87
2018-06-10T02:36:05.909Z,10.17
2018-06-10T02:38:34.171Z,10.63
2018-06-10T02:41:02.450Z,10.30
2018-06-10T02:43:30.700Z,10.43
2018-06-10T02:45:58.947Z,10.27
2018-06-10T02:48:27.174Z,10.70
2018-06-10T02:50:55.468Z,10.23
2018-06-10T02:53:23.732Z,10.97
2018-06-10T02:55:51.998Z,10.30
2018-06-10T02:58:20.267Z,11.23
2018-06-10T03:00:48.505Z,10.90
2018-06-10T03:03:16.783Z,11.00
2018-06-10T03:05:45.045Z,10.87
2018-06-10T03:08:13.321Z,11.60
2018-06-10T03:10:41.986Z,11.97
2018-06-10T03:13:10.223Z,11.67
2018-06-10T03:15:38.454Z,11.43
2018-06-10T03:18:06.681Z,12.93
2018-06-10T03:20:34.921Z,13.20
2018-06-10T03:23:03.220Z,15.17
2018-06-10T03:25:31.446Z,13.23
2018-06-10T03:27:59.694Z,13.97
2018-06-10T03:30:27.912Z,13.60
2018-06-10T03:32:56.178Z,14.23
2018-06-10T03:35:24.449Z,14.80
2018-06-10T03:37:52.728Z,15.43
2018-06-10T03:40:20.946Z,14.97
2018-06-10T03:42:49.193Z,15.50
2018-06-10T03:45:17.500Z,15.43
2018-06-10T03:47:45.699Z,15.10
2018-06-10T03:50:13.948Z,15.50
2018-06-10T03:52:42.196Z,14.47
2018-06-10T03:55:10.440Z,14.80
2018-06-10T03:57:38.683Z,14.60
2018-06-10T04:00:06.941Z,14.53
2018-06-10T04:02:35.185Z,12.47
2018-06-10T04:05:03.550Z,15.90
2018-06-10T04:07:31.888Z,17.63
2018-06-10T04:10:00.126Z,14.97
2018-06-10T04:12:28.353Z,17.80
2018-06-10T04:14:56.660Z,16.07
2018-06-10T04:17:24.991Z,15.37
2018-06-10T04:19:53.222Z,14.87
2018-06-10T04:22:21.485Z,16.10
2018-06-10T04:24:49.706Z,16.23
2018-06-10T04:27:17.692Z,15.67
2018-06-10T04:29:45.942Z,16.50
2018-06-10T04:32:14.211Z,12.43
2018-06-10T04:34:42.454Z,11.10
2018-06-10T04:37:10.685Z,9.93
2018-06-10T04:39:38.910Z,10.13
2018-06-10T04:42:07.245Z,8.90
2018-06-10T04:44:35.438Z,8.77
2018-06-10T04:47:03.675Z,8.70
2018-06-10T04:49:31.944Z,8.27
2018-06-10T04:52:00.129Z,8.83
2018-06-10T04:54:28.369Z,7.93
2018-06-10T04:56:56.581Z,9.00
2018-06-10T04:59:24.901Z,8.97
2018-06-10T05:01:53.533Z,8.03
2018-06-10T05:04:21.504Z,7.60
2018-06-10T05:06:49.776Z,6.97
2018-06-10T05:09:18.005Z,7.03
2018-06-10T05:11:46.209Z,7.67
2018-06-10T05:14:14.436Z,6.87
2018-06-10T05:16:42.725Z,7.63
2018-06-10T05:19:11.035Z,6.90
2018-06-10T05:21:39.279Z,6.93
2018-06-10T05:24:07.480Z,6.83
2018-06-10T05:26:35.759Z,6.10
2018-06-10T05:29:04.307Z,5.87
2018-06-10T05:31:32.618Z,7.53
2018-06-10T05:34:00.868Z,5.70
2018-06-10T05:36:29.149Z,5.60
2018-06-10T05:38:57.395Z,6.60
2018-06-10T05:41:25.616Z,5.60
2018-06-10T05:43:53.878Z,6.37
2018-06-10T05:46:22.150Z,6.07
2018-06-10T05:48:50.353Z,6.97
2018-06-10T05:51:18.621Z,7.30
2018-06-10T05:53:46.852Z,7.77
2018-06-10T05:56:15.145Z,7.60
2018-06-10T05:58:43.354Z,8.37
2018-06-10T06:01:11.610Z,9.33
2018-06-10T06:03:39.834Z,8.97
2018-06-10T06:06:08.086Z,8.70
2018-06-10T06:08:36.341Z,7.13
2018-06-10T06:11:04.783Z,7.30
2018-06-10T06:13:32.980Z,7.77
2018-06-10T06:16:01.198Z,7.20
2018-06-10T06:18:29.530Z,8.33
2018-06-10T06:20:57.765Z,7.07
2018-06-10T06:23:26.023Z,10.27
2018-06-10T06:25:54.323Z,8.73
2018-06-10T06:28:22.610Z,10.73
2018-06-10T06:30:50.922Z,11.57
2018-06-10T06:33:19.265Z,10.43
2018-06-10T06:35:47.595Z,10.53
2018-06-10T06:38:15.914Z,11.47
2018-06-10T06:40:44.788Z,12.17
2018-06-10T06:43:13.050Z,10.10
2018-06-10T06:45:41.353Z,10.30
2018-06-10T06:48:09.553Z,9.07
2018-06-10T06:50:37.853Z,9.93
2018-06-10T06:53:06.111Z,10.77
2018-06-10T06:55:34.355Z,10.33
2018-06-10T06:58:02.655Z,9.10
2018-06-10T07:00:30.864Z,9.20
2018-06-10T07:02:59.181Z,10.33
2018-06-10T07:05:27.390Z,9.33
2018-06-10T07:07:55.633Z,13.40
2018-06-10T07:10:23.922Z,9.23
2018-06-10T07:12:52.144Z,8.53
2018-06-10T07:15:20.441Z,8.80
2018-06-10T07:17:48.743Z,8.97
2018-06-10T07:20:17.322Z,8.57
2018-06-10T07:22:45.549Z,9.70
2018-06-10T07:25:13.801Z,8.83
2018-06-10T07:27:42.046Z,10.07
2018-06-10T07:30:10.443Z,10.07
2018-06-10T07:32:38.885Z,9.63
2018-06-10T07:35:07.169Z,8.93
2018-06-10T07:37:35.458Z,11.80
2018-06-10T07:40:03.800Z,10.27
2018-06-10T07:42:32.071Z,9.87
2018-06-10T07:45:00.338Z,9.43
2018-06-10T07:47:28.595Z,10.83
2018-06-10T07:49:57.275Z,11.83
2018-06-10T07:52:25.575Z,11.43
2018-06-10T07:54:53.813Z,11.87
2018-06-10T07:57:22.107Z,10.70
2018-06-10T07:59:50.421Z,11.23
2018-06-10T08:02:18.630Z,10.10
2018-06-10T08:04:46.938Z,12.60
2018-06-10T08:07:15.165Z,13.13
2018-06-10T08:09:43.451Z,14.53
2018-06-10T08:12:11.441Z,16.47
2018-06-10T08:14:39.754Z,15.27
2018-06-10T08:17:08.033Z,16.23
2018-06-10T08:19:36.246Z,15.70
2018-06-10T08:22:04.707Z,15.67
2018-06-10T08:24:32.980Z,15.70
2018-06-10T08:27:01.154Z,15.47
2018-06-10T08:29:29.389Z,15.40
2018-06-10T08:31:57.660Z,16.37
2018-06-10T08:34:25.870Z,14.70
2018-06-10T08:36:54.154Z,15.60
2018-06-10T08:39:22.453Z,16.40
2018-06-10T08:41:50.693Z,17.27
2018-06-10T08:44:18.933Z,16.33
2018-06-10T08:46:47.377Z,16.90
2018-06-10T08:49:15.604Z,17.50
2018-06-10T08:51:43.837Z,18.53
2018-06-10T08:54:12.043Z,18.40
2018-06-10T08:56:40.248Z,20.47
2018-06-10T08:59:08.783Z,19.07
2018-06-10T09:01:37.079Z,19.50
2018-06-10T09:04:05.342Z,18.43
2018-06-10T09:06:33.688Z,16.80
2018-06-10T09:09:02.340Z,19.37
2018-06-10T09:11:30.744Z,20.67
2018-06-10T09:13:59.038Z,18.57
2018-06-10T09:16:27.309Z,18.83
2018-06-10T09:18:55.564Z,18.63
2018-06-10T09:21:24.162Z,19.30
2018-06-10T09:23:52.507Z,18.67
2018-06-10T09:26:20.841Z,17.80
2018-06-10T09:28:50.195Z,17.90
2018-06-10T09:31:18.474Z,18.73
2018-06-10T09:33:46.813Z,18.97
2018-06-10T09:36:15.462Z,17.97
2018-06-10T09:38:43.756Z,18.30
2018-06-10T09:41:12.727Z,16.63
2018-06-10T09:43:41.044Z,18.50
2018-06-10T09:46:09.422Z,16.83
2018-06-10T09:48:37.652Z,17.77
2018-06-10T09:51:05.957Z,16.73
2018-06-10T09:53:34.243Z,17.87
2018-06-10T09:56:02.557Z,17.27
2018-06-10T09:58:30.948Z,18.87
2018-06-10T10:00:59.222Z,18.67
2018-06-10T10:03:27.551Z,19.80
2018-06-10T10:05:55.986Z,20.40
2018-06-10T10:08:24.204Z,18.27
2018-06-10T10:10:52.615Z,20.40
2018-06-10T10:13:20.864Z,21.13
2018-06-10T10:15:49.246Z,19.17
2018-06-10T10:18:17.553Z,20.17
2018-06-10T10:20:45.852Z,20.77
2018-06-10T10:23:14.137Z,20.20
2018-06-10T10:25:42.453Z,20.13
2018-06-10T10:28:10.794Z,20.00
2018-06-10T10:30:39.123Z,17.40
2018-06-10T10:33:07.362Z,18.00
2018-06-10T10:35:35.659Z,18.80
2018-06-10T10:38:03.933Z,20.13
2018-06-10T10:40:32.423Z,19.03
2018-06-10T10:43:00.721Z,18.70
2018-06-10T10:45:29.381Z,18.67
2018-06-10T10:48:00.386Z,18.47
2018-06-10T10:50:30.224Z,18.73
2018-06-10T10:53:02.102Z,18.93
2018-06-10T10:55:48.878Z,19.23
2018-06-10T10:58:18.142Z,18.47
2018-06-10T11:00:46.832Z,18.50
2018-06-10T11:03:19.925Z,19.30
2018-06-10T11:05:48.981Z,19.67
2018-06-10T11:08:17.370Z,19.07
2018-06-10T11:10:46.270Z,17.37
2018-06-10T11:13:14.483Z,19.00
2018-06-10T11:15:42.912Z,20.73
2018-06-10T11:18:11.304Z,22.07
2018-06-10T11:20:39.526Z,21.17
2018-06-10T11:23:07.745Z,21.87
2018-06-10T11:25:36.850Z,21.63
2018-06-10T11:28:05.065Z,21.30
2018-06-10T11:30:33.359Z,21.93
2018-06-10T11:33:02.195Z,22.83
2018-06-10T11:35:30.955Z,21.90
2018-06-10T11:37:59.921Z,23.13
2018-06-10T11:40:28.392Z,22.03
2018-06-10T11:42:56.756Z,21.73
2018-06-10T11:45:25.063Z,22.70
2018-06-10T11:47:53.353Z,21.63
2018-06-10T11:50:21.603Z,22.10
2018-06-10T11:52:49.853Z,21.57
2018-06-10T11:55:18.911Z,22.17
2018-06-10T11:57:47.189Z,21.10
2018-06-10T12:00:15.829Z,22.30
2018-06-10T12:02:44.143Z,23.03
2018-06-10T12:05:12.706Z,20.20
2018-06-10T12:07:40.971Z,21.03
2018-06-10T12:10:09.203Z,21.40
2018-06-10T12:12:37.499Z,23.63
2018-06-10T12:15:05.938Z,21.97
2018-06-10T12:17:34.250Z,20.87
2018-06-10T12:20:02.505Z,22.53
2018-06-10T12:22:30.968Z,22.63
2018-06-10T12:24:59.658Z,22.50
2018-06-10T12:27:27.926Z,22.23
2018-06-10T12:29:56.656Z,24.10
2018-06-10T12:32:25.071Z,23.70
2018-06-10T12:34:53.553Z,24.73
2018-06-10T12:37:21.886Z,22.63
2018-06-10T12:39:51.035Z,23.43
2018-06-10T12:42:19.400Z,23.17
2018-06-10T12:44:48.603Z,21.83
2018-06-10T12:47:17.319Z,23.63
2018-06-10T12:49:45.611Z,22.40
2018-06-10T12:52:17.493Z,20.53
2018-06-10T12:54:45.928Z,22.47
2018-06-10T12:57:14.301Z,22.03
2018-06-10T12:59:42.610Z,38.73
2018-06-10T13:02:10.891Z,25.03
2018-06-10T13:04:39.081Z,21.63
2018-06-10T13:07:07.834Z,20.13
2018-06-10T13:09:36.045Z,20.83
2018-06-10T13:12:04.319Z,20.33
2018-06-10T13:14:32.749Z,19.63
2018-06-10T13:17:01.258Z,21.00
2018-06-10T13:19:29.447Z,19.53
2018-06-10T13:21:57.889Z,20.67
2018-06-10T13:24:26.178Z,21.00
2018-06-10T13:26:54.470Z,18.27
2018-06-10T13:29:22.757Z,20.43
2018-06-10T13:31:51.425Z,20.07
2018-06-10T13:34:19.623Z,19.40
2018-06-10T13:36:48.186Z,18.53
2018-06-10T13:39:16.492Z,17.87
2018-06-10T13:41:44.895Z,18.00
2018-06-10T13:44:13.118Z,16.83
2018-06-10T13:46:41.339Z,14.53
2018-06-10T13:49:09.600Z,15.43
2018-06-10T13:51:37.836Z,14.83
2018-06-10T13:54:06.124Z,13.70
2018-06-10T13:56:34.411Z,12.93
2018-06-10T13:59:02.902Z,11.63
2018-06-10T14:01:31.129Z,13.40
2018-06-10T14:03:59.787Z,13.03
2018-06-10T14:06:28.075Z,11.87
2018-06-10T14:08:56.305Z,10.93
2018-06-10T14:11:24.540Z,11.17
2018-06-10T14:13:52.777Z,10.90
2018-06-10T14:16:21.066Z,10.13
2018-06-10T14:18:49.313Z,11.20
2018-06-10T14:21:17.586Z,10.27
2018-06-10T14:23:45.941Z,10.73
2018-06-10T15:43:29.741Z,8.23
2018-06-10T15:45:58.000Z,6.63
2018-06-10T15:48:26.210Z,7.07
2018-06-10T15:50:54.469Z,7.10
2018-06-10T15:53:22.740Z,7.53
2018-06-10T15:55:50.954Z,7.57
2018-06-10T15:58:19.226Z,7.90
2018-06-10T16:00:47.497Z,6.73
2018-06-10T16:03:15.765Z,7.53
2018-06-10T16:05:43.991Z,7.30
2018-06-10T16:08:12.214Z,7.23
2018-06-10T16:10:40.469Z,7.90
2018-06-10T16:13:08.758Z,8.10
2018-06-10T16:15:37.099Z,7.97
2018-06-10T16:18:06.021Z,8.00
2018-06-10T16:20:34.221Z,8.90
2018-06-10T16:23:02.544Z,8.33
2018-06-10T16:25:30.842Z,8.67
2018-06-10T16:27:59.159Z,9.07
2018-06-10T16:30:27.401Z,9.03
2018-06-10T16:32:55.629Z,9.27
2018-06-10T16:35:23.898Z,8.80
2018-06-10T16:37:51.937Z,9.47
2018-06-10T16:40:20.163Z,9.13
2018-06-10T16:42:48.429Z,8.90
2018-06-10T16:45:16.711Z,9.00
2018-06-10T16:47:44.938Z,8.97
2018-06-10T16:50:13.190Z,8.30
2018-06-10T16:52:41.492Z,8.87
2018-06-10T16:55:09.753Z,8.33
2018-06-10T16:57:38.046Z,8.60
2018-06-10T17:00:06.290Z,8.17
2018-06-10T17:02:34.576Z,8.10
2018-06-10T17:05:02.885Z,8.43
2018-06-10T17:07:31.181Z,8.37
2018-06-10T17:09:59.456Z,8.57
2018-06-10T17:12:27.718Z,9.87
2018-06-10T17:14:55.942Z,8.93
2018-06-10T17:17:24.186Z,9.00
2018-06-10T17:19:52.419Z,8.50
2018-06-10T17:22:20.629Z,8.50
2018-06-10T17:24:48.870Z,8.23
2018-06-10T17:27:17.175Z,8.93
2018-06-10T17:29:45.425Z,7.90
2018-06-10T17:32:13.669Z,7.10
2018-06-10T17:34:41.999Z,8.37
2018-06-10T17:37:10.486Z,8.57
2018-06-10T17:39:38.743Z,7.73
2018-06-10T17:42:06.966Z,8.57
2018-06-10T17:44:35.212Z,8.00
2018-06-10T17:47:03.564Z,8.50
2018-06-10T17:49:31.788Z,9.00
2018-06-10T17:52:00.040Z,8.03
2018-06-10T17:54:27.988Z,8.33
2018-06-10T17:56:56.243Z,8.20
2018-06-10T17:59:24.513Z,8.20
2018-06-10T18:01:52.784Z,8.60
2018-06-10T18:04:21.045Z,7.47
2018-06-10T18:06:49.377Z,8.13
2018-06-10T18:09:17.702Z,8.33
2018-06-10T18:11:45.942Z,8.90
2018-06-10T18:14:14.202Z,8.13
2018-06-10T18:16:42.430Z,8.27
2018-06-10T18:19:10.625Z,8.17
2018-06-10T18:21:38.938Z,8.10
2018-06-10T18:24:07.175Z,8.20
2018-06-10T18:26:35.532Z,7.83
2018-06-10T18:29:03.761Z,8.70
2018-06-10T18:31:32.016Z,8.77
2018-06-10T18:34:00.287Z,8.30
2018-06-10T18:36:28.509Z,8.57
2018-06-10T18:38:56.735Z,7.90
2018-06-10T18:41:25.019Z,8.50
2018-06-10T18:43:53.287Z,9.07
2018-06-10T18:46:21.540Z,8.03
2018-06-10T18:48:49.794Z,8.10
2018-06-10T18:51:18.143Z,8.07
2018-06-10T18:53:46.445Z,8.80
2018-06-10T18:56:14.688Z,7.87
2018-06-10T18:58:42.978Z,8.03
2018-06-10T19:01:11.203Z,8.63
2018-06-10T19:03:39.409Z,8.47
2018-06-10T19:06:07.764Z,8.60
2018-06-10T19:08:35.994Z,7.37
2018-06-10T19:11:04.276Z,7.60
2018-06-10T19:13:32.521Z,7.60
2018-06-10T19:16:00.739Z,7.93
2018-06-10T19:18:28.946Z,7.60
2018-06-10T19:20:57.216Z,7.40
2018-06-10T19:23:25.433Z,8.00
2018-06-10T19:25:53.897Z,7.87
2018-06-10T19:28:22.178Z,7.30
2018-06-10T19:30:50.446Z,7.53
2018-06-10T19:33:18.817Z,7.57
2018-06-10T19:35:47.032Z,7.20
2018-06-10T19:38:15.252Z,8.07
2018-06-10T19:40:43.474Z,7.70
2018-06-10T19:43:11.800Z,7.23
2018-06-10T19:45:40.100Z,7.17
2018-06-10T19:48:08.398Z,14.13
2018-06-10T19:50:37.810Z,15.97
2018-06-10T19:53:06.372Z,8.50
2018-06-10T19:55:34.613Z,7.70
2018-06-10T19:58:02.844Z,7.20
2018-06-10T20:00:31.103Z,7.67
2018-06-10T20:02:59.380Z,7.70
2018-06-10T20:05:27.647Z,6.97
2018-06-10T20:07:55.885Z,7.50
2018-06-10T20:10:24.266Z,7.20
2018-06-10T20:12:52.636Z,6.83
2018-06-10T20:15:20.854Z,6.77
2018-06-10T20:17:49.079Z,7.43
2018-06-10T20:20:17.302Z,7.97
2018-06-10T20:22:45.576Z,6.93
2018-06-10T20:25:13.870Z,7.57
2018-06-10T20:27:42.181Z,8.33
2018-06-10T20:30:10.527Z,7.63
2018-06-10T20:32:38.757Z,7.83
2018-06-10T20:35:07.027Z,7.90
2018-06-10T20:37:36.178Z,7.93
2018-06-10T20:40:04.658Z,7.47
2018-06-10T20:42:40.124Z,7.53
2018-06-10T20:45:08.370Z,8.47
2018-06-10T20:47:36.907Z,7.70
2018-06-10T20:50:05.418Z,7.67
2018-06-10T20:52:33.689Z,7.40
2018-06-10T20:55:01.939Z,7.53
2018-06-10T20:57:31.394Z,7.93
2018-06-10T20:59:59.993Z,8.07
2018-06-10T21:02:29.429Z,8.80
2018-06-10T21:04:57.719Z,7.87
2018-06-10T21:07:33.306Z,7.87
2018-06-10T21:10:01.534Z,17.77
2018-06-10T21:12:32.089Z,11.10
2018-06-10T21:15:01.140Z,9.10
2018-06-10T21:17:30.292Z,7.23
2018-06-10T21:20:00.988Z,8.27
2018-06-10T21:22:31.389Z,8.40
2018-06-10T21:24:59.685Z,7.13
2018-06-10T21:27:27.892Z,7.80
2018-06-10T21:29:56.186Z,8.17
2018-06-10T21:32:24.437Z,7.43
2018-06-10T21:34:52.681Z,7.57
2018-06-10T21:37:20.949Z,7.70
2018-06-10T21:39:49.370Z,7.77
2018-06-10T21:42:17.589Z,7.87
2018-06-10T21:44:46.805Z,7.27
2018-06-10T21:47:15.026Z,7.43
2018-06-10T21:49:43.248Z,8.03
2018-06-10T21:52:11.488Z,7.00
2018-06-10T21:54:39.789Z,6.83
2018-06-10T21:57:08.000Z,7.17
2018-06-10T21:59:36.331Z,7.23
2018-06-10T22:02:04.540Z,7.90
2018-06-10T22:04:32.795Z,7.43
2018-06-10T22:07:01.006Z,8.30
2018-06-10T22:09:29.214Z,7.33
2018-06-10T22:11:57.529Z,7.80
2018-06-10T22:14:25.752Z,8.17
2018-06-10T22:16:53.992Z,8.10
2018-06-10T22:19:22.256Z,7.50
2018-06-10T22:21:50.509Z,7.30
2018-06-10T22:24:18.943Z,7.77
2018-06-10T22:26:47.202Z,7.93
2018-06-10T22:29:15.478Z,7.57
2018-06-10T22:31:43.742Z,7.77
2018-06-10T22:34:12.040Z,7.60
2018-06-10T22:36:40.265Z,8.50
2018-06-10T22:39:08.551Z,7.57
2018-06-10T22:41:36.838Z,8.37
2018-06-10T22:44:05.125Z,7.50
2018-06-10T22:46:33.363Z,7.23
2018-06-10T22:49:01.596Z,7.80
2018-06-10T22:51:29.832Z,7.40
2018-06-10T22:54:09.459Z,7.30
2018-06-10T22:56:37.994Z,7.90
2018-06-10T22:59:06.252Z,7.27
2018-06-10T23:01:34.501Z,7.90
2018-06-10T23:04:02.710Z,8.03
2018-06-10T23:06:30.886Z,7.80
2018-06-10T23:08:59.107Z,7.07
2018-06-10T23:11:27.333Z,7.90
2018-06-10T23:13:55.528Z,7.70
2018-06-10T23:16:23.736Z,7.60
2018-06-10T23:18:52.355Z,7.77
2018-06-10T23:21:20.529Z,7.80
2018-06-10T23:23:48.726Z,7.60
2018-06-10T23:26:16.940Z,8.20
2018-06-10T23:28:45.205Z,8.43
2018-06-10T23:31:13.429Z,7.30
2018-06-10T23:33:41.731Z,8.23
2018-06-10T23:36:09.953Z,7.77
2018-06-10T23:38:38.165Z,8.00
2018-06-10T23:41:06.414Z,7.73
2018-06-10T23:43:34.605Z,8.27
2018-06-10T23:46:02.880Z,8.10
2018-06-10T23:48:31.101Z,7.93
2018-06-10T23:51:00.317Z,8.23
2018-06-10T23:53:28.537Z,8.17
2018-06-10T23:55:56.801Z,7.40
2018-06-10T23:58:24.988Z,7.40
